メインページ
METAR-TAF:

METAR-TAF

空港 :

NWS Office

マジュロ, マーシャル諸島

緯度: 07-05N, 経度: 171-12E, 海抜: 4m

現時点の気象観測

当レポートは22分前の05:50(UTC)に作成
の風 8kt
気温 29°C
湿度 79%
気圧 1006 hPa
視程: 24.1km
高度1500ftの雲は散在している
高度5000ftの雲は散在している
高度30000ftの曇り

METAR: PKMR 130550Z 10008KT 15SM SCT015 SCT050 OVC300 29/25 A2972 RMK SLP068 8/808 T02930253 10312 20293 53008

時間: 18:12 (06:12 UTC)


TAF: 見つかりません

4,000以上の空港の気象観測と天気予報(METAR報とTAF報)

利用可能な観測所は地図上に黄色い丸と赤い丸で示す。

丸の上にカーソルを重ねると観測所名を参照できる。

次にクリックすると気象観測と天気予報を参照できる。

マップの切り替え:黒色「×」印の緑ボタンをクリックして拡大、「-」印の緑ボタンをクリックして縮小、緑色の三角印をクリックして隣りの地図に切り替え


METAR-TAF: